sensor_id;sensor_type;location;lat;lon;timestamp;P1;durP1;ratioP1;P2;durP2;ratioP2
7027;SDS011;3555;53.248;10.336;2023-07-31T00:01:45;7.00;;;1.95;;
7027;SDS011;3555;53.248;10.336;2023-07-31T00:04:12;4.93;;;1.70;;
7027;SDS011;3555;53.248;10.336;2023-07-31T00:06:39;5.20;;;1.95;;
7027;SDS011;3555;53.248;10.336;2023-07-31T00:09:05;4.47;;;1.80;;
7027;SDS011;3555;53.248;10.336;2023-07-31T00:11:32;6.10;;;1.80;;
7027;SDS011;3555;53.248;10.336;2023-07-31T00:14:01;5.20;;;1.80;;
7027;SDS011;3555;53.248;10.336;2023-07-31T00:16:27;5.78;;;1.65;;
7027;SDS011;3555;53.248;10.336;2023-07-31T00:18:54;3.67;;;1.65;;
7027;SDS011;3555;53.248;10.336;2023-07-31T00:21:21;4.78;;;1.50;;
7027;SDS011;3555;53.248;10.336;2023-07-31T00:23:48;3.35;;;1.63;;
7027;SDS011;3555;53.248;10.336;2023-07-31T00:26:15;7.38;;;1.70;;
7027;SDS011;3555;53.248;10.336;2023-07-31T00:28:42;3.58;;;1.80;;
7027;SDS011;3555;53.248;10.336;2023-07-31T00:31:10;6.15;;;1.83;;
7027;SDS011;3555;53.248;10.336;2023-07-31T00:33:37;3.83;;;1.45;;
7027;SDS011;3555;53.248;10.336;2023-07-31T00:36:04;5.18;;;1.70;;
7027;SDS011;3555;53.248;10.336;2023-07-31T00:38:31;3.78;;;1.65;;
7027;SDS011;3555;53.248;10.336;2023-07-31T00:40:58;4.18;;;1.90;;
7027;SDS011;3555;53.248;10.336;2023-07-31T00:43:25;7.68;;;2.03;;
7027;SDS011;3555;53.248;10.336;2023-07-31T00:45:52;5.85;;;1.80;;
7027;SDS011;3555;53.248;10.336;2023-07-31T00:48:20;5.53;;;1.80;;
7027;SDS011;3555;53.248;10.336;2023-07-31T00:50:47;5.10;;;1.98;;
7027;SDS011;3555;53.248;10.336;2023-07-31T00:53:14;3.15;;;1.60;;
7027;SDS011;3555;53.248;10.336;2023-07-31T00:55:42;6.03;;;1.95;;
7027;SDS011;3555;53.248;10.336;2023-07-31T00:58:09;4.63;;;2.10;;
7027;SDS011;3555;53.248;10.336;2023-07-31T01:00:36;4.20;;;1.83;;
7027;SDS011;3555;53.248;10.336;2023-07-31T01:03:03;4.78;;;1.60;;
7027;SDS011;3555;53.248;10.336;2023-07-31T01:05:33;7.20;;;2.05;;
7027;SDS011;3555;53.248;10.336;2023-07-31T01:08:11;6.97;;;2.03;;
7027;SDS011;3555;53.248;10.336;2023-07-31T01:10:46;5.07;;;1.90;;
7027;SDS011;3555;53.248;10.336;2023-07-31T01:13:21;6.00;;;2.30;;
7027;SDS011;3555;53.248;10.336;2023-07-31T01:15:48;5.47;;;2.30;;
7027;SDS011;3555;53.248;10.336;2023-07-31T01:18:15;6.32;;;2.25;;
7027;SDS011;3555;53.248;10.336;2023-07-31T01:20:43;5.63;;;1.90;;
7027;SDS011;3555;53.248;10.336;2023-07-31T01:26:12;3.60;;;1.60;;
7027;SDS011;3555;53.248;10.336;2023-07-31T01:28:47;5.57;;;1.85;;
7027;SDS011;3555;53.248;10.336;2023-07-31T01:31:22;6.70;;;1.88;;
7027;SDS011;3555;53.248;10.336;2023-07-31T01:33:50;5.80;;;1.73;;
7027;SDS011;3555;53.248;10.336;2023-07-31T01:36:20;4.32;;;1.90;;
7027;SDS011;3555;53.248;10.336;2023-07-31T01:38:47;5.13;;;1.77;;
7027;SDS011;3555;53.248;10.336;2023-07-31T01:41:17;3.15;;;1.80;;
7027;SDS011;3555;53.248;10.336;2023-07-31T01:43:44;5.63;;;2.00;;
7027;SDS011;3555;53.248;10.336;2023-07-31T01:46:12;5.43;;;2.10;;
7027;SDS011;3555;53.248;10.336;2023-07-31T01:48:38;5.30;;;2.10;;
7027;SDS011;3555;53.248;10.336;2023-07-31T01:51:05;2.80;;;1.73;;
7027;SDS011;3555;53.248;10.336;2023-07-31T01:53:32;7.72;;;1.95;;
7027;SDS011;3555;53.248;10.336;2023-07-31T01:55:59;4.63;;;1.90;;
7027;SDS011;3555;53.248;10.336;2023-07-31T01:58:27;9.07;;;2.30;;
7027;SDS011;3555;53.248;10.336;2023-07-31T02:00:54;3.92;;;2.10;;
7027;SDS011;3555;53.248;10.336;2023-07-31T02:03:20;8.98;;;2.05;;
7027;SDS011;3555;53.248;10.336;2023-07-31T02:05:47;4.97;;;1.50;;
7027;SDS011;3555;53.248;10.336;2023-07-31T02:08:15;5.15;;;2.13;;
7027;SDS011;3555;53.248;10.336;2023-07-31T02:10:42;5.07;;;1.80;;
7027;SDS011;3555;53.248;10.336;2023-07-31T02:13:09;5.18;;;2.05;;
7027;SDS011;3555;53.248;10.336;2023-07-31T02:15:37;5.22;;;1.80;;
7027;SDS011;3555;53.248;10.336;2023-07-31T02:18:04;6.20;;;2.20;;
7027;SDS011;3555;53.248;10.336;2023-07-31T02:20:33;4.13;;;2.03;;
7027;SDS011;3555;53.248;10.336;2023-07-31T02:23:01;4.75;;;1.90;;
7027;SDS011;3555;53.248;10.336;2023-07-31T02:25:27;3.42;;;1.95;;
7027;SDS011;3555;53.248;10.336;2023-07-31T02:27:54;7.90;;;2.05;;
7027;SDS011;3555;53.248;10.336;2023-07-31T02:30:21;5.28;;;2.22;;
7027;SDS011;3555;53.248;10.336;2023-07-31T02:32:50;4.30;;;2.20;;
7027;SDS011;3555;53.248;10.336;2023-07-31T02:35:16;6.18;;;2.40;;
7027;SDS011;3555;53.248;10.336;2023-07-31T02:37:43;4.35;;;2.95;;
7027;SDS011;3555;53.248;10.336;2023-07-31T02:40:10;4.03;;;2.67;;
7027;SDS011;3555;53.248;10.336;2023-07-31T02:42:38;6.22;;;2.80;;
7027;SDS011;3555;53.248;10.336;2023-07-31T02:45:05;5.45;;;3.03;;
7027;SDS011;3555;53.248;10.336;2023-07-31T02:47:33;6.15;;;2.80;;
7027;SDS011;3555;53.248;10.336;2023-07-31T02:50:01;6.63;;;3.10;;
7027;SDS011;3555;53.248;10.336;2023-07-31T02:52:29;5.07;;;2.75;;
7027;SDS011;3555;53.248;10.336;2023-07-31T02:54:56;7.30;;;3.80;;
7027;SDS011;3555;53.248;10.336;2023-07-31T02:57:23;4.53;;;3.13;;
7027;SDS011;3555;53.248;10.336;2023-07-31T02:59:50;7.05;;;3.28;;
7027;SDS011;3555;53.248;10.336;2023-07-31T03:02:17;6.20;;;3.35;;
7027;SDS011;3555;53.248;10.336;2023-07-31T03:04:44;8.57;;;3.95;;
7027;SDS011;3555;53.248;10.336;2023-07-31T03:07:12;6.03;;;3.80;;
7027;SDS011;3555;53.248;10.336;2023-07-31T03:09:39;4.97;;;3.60;;
7027;SDS011;3555;53.248;10.336;2023-07-31T03:12:06;5.13;;;3.70;;
7027;SDS011;3555;53.248;10.336;2023-07-31T03:14:34;7.15;;;3.20;;
7027;SDS011;3555;53.248;10.336;2023-07-31T03:17:01;5.82;;;3.47;;
7027;SDS011;3555;53.248;10.336;2023-07-31T03:19:29;5.03;;;3.35;;
7027;SDS011;3555;53.248;10.336;2023-07-31T03:21:57;6.70;;;3.72;;
7027;SDS011;3555;53.248;10.336;2023-07-31T03:24:25;6.80;;;3.50;;
7027;SDS011;3555;53.248;10.336;2023-07-31T03:26:52;8.40;;;3.65;;
7027;SDS011;3555;53.248;10.336;2023-07-31T03:29:19;5.35;;;3.88;;
7027;SDS011;3555;53.248;10.336;2023-07-31T03:31:46;4.03;;;3.63;;
7027;SDS011;3555;53.248;10.336;2023-07-31T03:34:12;7.07;;;3.70;;
7027;SDS011;3555;53.248;10.336;2023-07-31T03:36:39;7.00;;;3.67;;
7027;SDS011;3555;53.248;10.336;2023-07-31T03:39:06;4.28;;;3.60;;
7027;SDS011;3555;53.248;10.336;2023-07-31T03:41:35;6.22;;;3.28;;
7027;SDS011;3555;53.248;10.336;2023-07-31T03:44:01;4.07;;;3.17;;
7027;SDS011;3555;53.248;10.336;2023-07-31T03:46:28;8.73;;;3.70;;
7027;SDS011;3555;53.248;10.336;2023-07-31T03:48:55;4.47;;;3.13;;
7027;SDS011;3555;53.248;10.336;2023-07-31T03:51:22;4.00;;;3.25;;
7027;SDS011;3555;53.248;10.336;2023-07-31T03:53:49;6.20;;;3.40;;
7027;SDS011;3555;53.248;10.336;2023-07-31T03:56:16;4.00;;;3.10;;
7027;SDS011;3555;53.248;10.336;2023-07-31T03:58:44;4.50;;;3.50;;
7027;SDS011;3555;53.248;10.336;2023-07-31T04:01:11;3.35;;;3.05;;
7027;SDS011;3555;53.248;10.336;2023-07-31T04:03:38;5.38;;;3.00;;
7027;SDS011;3555;53.248;10.336;2023-07-31T04:06:05;6.00;;;3.45;;
7027;SDS011;3555;53.248;10.336;2023-07-31T04:08:32;3.40;;;3.10;;
7027;SDS011;3555;53.248;10.336;2023-07-31T04:10:59;6.15;;;3.45;;
7027;SDS011;3555;53.248;10.336;2023-07-31T04:13:26;3.80;;;2.90;;
7027;SDS011;3555;53.248;10.336;2023-07-31T04:15:56;3.90;;;3.35;;
7027;SDS011;3555;53.248;10.336;2023-07-31T04:18:24;5.20;;;3.42;;
7027;SDS011;3555;53.248;10.336;2023-07-31T04:20:51;5.57;;;3.90;;
7027;SDS011;3555;53.248;10.336;2023-07-31T04:23:18;4.78;;;3.30;;
7027;SDS011;3555;53.248;10.336;2023-07-31T04:25:45;3.35;;;2.95;;
7027;SDS011;3555;53.248;10.336;2023-07-31T04:28:11;5.53;;;3.15;;
7027;SDS011;3555;53.248;10.336;2023-07-31T04:30:38;3.85;;;3.22;;
7027;SDS011;3555;53.248;10.336;2023-07-31T04:33:07;4.05;;;3.33;;
7027;SDS011;3555;53.248;10.336;2023-07-31T04:35:34;3.85;;;3.30;;
7027;SDS011;3555;53.248;10.336;2023-07-31T04:38:00;4.03;;;3.63;;
7027;SDS011;3555;53.248;10.336;2023-07-31T04:40:27;3.00;;;2.80;;
7027;SDS011;3555;53.248;10.336;2023-07-31T04:42:54;4.60;;;3.45;;
7027;SDS011;3555;53.248;10.336;2023-07-31T04:45:21;3.83;;;3.10;;
7027;SDS011;3555;53.248;10.336;2023-07-31T04:47:48;5.53;;;3.60;;
7027;SDS011;3555;53.248;10.336;2023-07-31T04:50:16;4.50;;;3.80;;
7027;SDS011;3555;53.248;10.336;2023-07-31T04:52:43;5.28;;;3.25;;
7027;SDS011;3555;53.248;10.336;2023-07-31T04:55:10;3.95;;;3.20;;
7027;SDS011;3555;53.248;10.336;2023-07-31T04:57:37;3.58;;;3.28;;
7027;SDS011;3555;53.248;10.336;2023-07-31T05:00:05;4.22;;;3.47;;
7027;SDS011;3555;53.248;10.336;2023-07-31T05:02:32;5.28;;;3.15;;
7027;SDS011;3555;53.248;10.336;2023-07-31T05:04:59;3.80;;;3.42;;
7027;SDS011;3555;53.248;10.336;2023-07-31T05:07:28;4.18;;;3.28;;
7027;SDS011;3555;53.248;10.336;2023-07-31T05:09:54;4.15;;;3.33;;
7027;SDS011;3555;53.248;10.336;2023-07-31T05:12:21;4.35;;;3.00;;
7027;SDS011;3555;53.248;10.336;2023-07-31T05:14:48;3.92;;;3.30;;
7027;SDS011;3555;53.248;10.336;2023-07-31T05:17:15;3.58;;;3.20;;
7027;SDS011;3555;53.248;10.336;2023-07-31T05:19:42;3.95;;;3.08;;
7027;SDS011;3555;53.248;10.336;2023-07-31T05:22:09;4.70;;;3.10;;
7027;SDS011;3555;53.248;10.336;2023-07-31T05:24:37;3.40;;;2.90;;
7027;SDS011;3555;53.248;10.336;2023-07-31T05:27:04;3.20;;;2.90;;
7027;SDS011;3555;53.248;10.336;2023-07-31T05:29:31;3.85;;;3.35;;
7027;SDS011;3555;53.248;10.336;2023-07-31T05:31:58;4.82;;;2.88;;
7027;SDS011;3555;53.248;10.336;2023-07-31T05:34:25;2.88;;;2.67;;
7027;SDS011;3555;53.248;10.336;2023-07-31T05:36:52;3.17;;;2.78;;
7027;SDS011;3555;53.248;10.336;2023-07-31T05:39:19;2.90;;;2.67;;
7027;SDS011;3555;53.248;10.336;2023-07-31T05:41:47;3.00;;;2.55;;
7027;SDS011;3555;53.248;10.336;2023-07-31T05:44:14;3.33;;;2.83;;
7027;SDS011;3555;53.248;10.336;2023-07-31T05:46:41;3.33;;;2.53;;
7027;SDS011;3555;53.248;10.336;2023-07-31T05:49:08;3.40;;;2.63;;
7027;SDS011;3555;53.248;10.336;2023-07-31T05:51:34;3.88;;;2.97;;
7027;SDS011;3555;53.248;10.336;2023-07-31T05:54:01;2.55;;;2.35;;
7027;SDS011;3555;53.248;10.336;2023-07-31T05:56:28;2.53;;;2.30;;
7027;SDS011;3555;53.248;10.336;2023-07-31T05:58:58;3.63;;;2.60;;
7027;SDS011;3555;53.248;10.336;2023-07-31T06:01:24;2.88;;;2.50;;
7027;SDS011;3555;53.248;10.336;2023-07-31T06:03:51;3.15;;;2.42;;
7027;SDS011;3555;53.248;10.336;2023-07-31T06:06:18;3.78;;;2.13;;
7027;SDS011;3555;53.248;10.336;2023-07-31T06:08:45;3.28;;;2.10;;
7027;SDS011;3555;53.248;10.336;2023-07-31T06:11:12;2.22;;;2.03;;
7027;SDS011;3555;53.248;10.336;2023-07-31T06:13:39;2.00;;;1.80;;
7027;SDS011;3555;53.248;10.336;2023-07-31T06:16:07;2.20;;;2.00;;
7027;SDS011;3555;53.248;10.336;2023-07-31T06:18:34;2.30;;;2.10;;
7027;SDS011;3555;53.248;10.336;2023-07-31T06:21:01;2.00;;;1.80;;
7027;SDS011;3555;53.248;10.336;2023-07-31T06:23:28;1.73;;;1.63;;
7027;SDS011;3555;53.248;10.336;2023-07-31T06:25:55;1.63;;;1.52;;
7027;SDS011;3555;53.248;10.336;2023-07-31T06:28:23;1.60;;;1.50;;
7027;SDS011;3555;53.248;10.336;2023-07-31T06:30:53;1.92;;;1.67;;
7027;SDS011;3555;53.248;10.336;2023-07-31T06:33:21;1.70;;;1.50;;
7027;SDS011;3555;53.248;10.336;2023-07-31T06:35:48;2.03;;;1.83;;
7027;SDS011;3555;53.248;10.336;2023-07-31T06:38:15;2.55;;;1.70;;
7027;SDS011;3555;53.248;10.336;2023-07-31T06:40:44;1.60;;;1.42;;
7027;SDS011;3555;53.248;10.336;2023-07-31T06:43:11;1.40;;;1.30;;
7027;SDS011;3555;53.248;10.336;2023-07-31T06:45:38;1.58;;;1.38;;
7027;SDS011;3555;53.248;10.336;2023-07-31T06:48:05;1.42;;;1.20;;
7027;SDS011;3555;53.248;10.336;2023-07-31T06:50:33;1.83;;;1.67;;
7027;SDS011;3555;53.248;10.336;2023-07-31T06:53:00;1.88;;;1.48;;
7027;SDS011;3555;53.248;10.336;2023-07-31T06:55:27;1.58;;;1.30;;
7027;SDS011;3555;53.248;10.336;2023-07-31T06:57:54;1.52;;;1.10;;
7027;SDS011;3555;53.248;10.336;2023-07-31T07:00:22;1.40;;;1.17;;
7027;SDS011;3555;53.248;10.336;2023-07-31T07:02:50;1.85;;;1.20;;
7027;SDS011;3555;53.248;10.336;2023-07-31T07:05:17;1.27;;;1.17;;
7027;SDS011;3555;53.248;10.336;2023-07-31T07:07:45;2.17;;;1.20;;
7027;SDS011;3555;53.248;10.336;2023-07-31T07:10:12;1.63;;;1.35;;
7027;SDS011;3555;53.248;10.336;2023-07-31T07:12:39;2.53;;;1.10;;
7027;SDS011;3555;53.248;10.336;2023-07-31T07:15:06;1.08;;;0.90;;
7027;SDS011;3555;53.248;10.336;2023-07-31T07:17:33;1.40;;;1.00;;
7027;SDS011;3555;53.248;10.336;2023-07-31T07:20:00;1.50;;;1.13;;
7027;SDS011;3555;53.248;10.336;2023-07-31T07:22:28;1.73;;;1.13;;
7027;SDS011;3555;53.248;10.336;2023-07-31T07:24:56;1.23;;;1.00;;
7027;SDS011;3555;53.248;10.336;2023-07-31T07:27:23;1.10;;;0.88;;
7027;SDS011;3555;53.248;10.336;2023-07-31T07:29:51;2.38;;;1.00;;
7027;SDS011;3555;53.248;10.336;2023-07-31T07:32:18;1.63;;;0.90;;
7027;SDS011;3555;53.248;10.336;2023-07-31T07:34:45;1.27;;;1.00;;
7027;SDS011;3555;53.248;10.336;2023-07-31T07:37:13;1.02;;;0.73;;
7027;SDS011;3555;53.248;10.336;2023-07-31T07:39:40;1.30;;;0.90;;
7027;SDS011;3555;53.248;10.336;2023-07-31T07:42:09;1.05;;;0.95;;
7027;SDS011;3555;53.248;10.336;2023-07-31T07:44:36;1.95;;;1.10;;
7027;SDS011;3555;53.248;10.336;2023-07-31T07:47:03;1.67;;;0.73;;
7027;SDS011;3555;53.248;10.336;2023-07-31T07:49:31;0.90;;;0.70;;
7027;SDS011;3555;53.248;10.336;2023-07-31T07:51:58;1.05;;;0.90;;
7027;SDS011;3555;53.248;10.336;2023-07-31T07:54:25;1.00;;;0.90;;
7027;SDS011;3555;53.248;10.336;2023-07-31T07:56:52;1.40;;;1.05;;
7027;SDS011;3555;53.248;10.336;2023-07-31T07:59:20;1.15;;;0.80;;
7027;SDS011;3555;53.248;10.336;2023-07-31T08:01:47;0.93;;;0.82;;
7027;SDS011;3555;53.248;10.336;2023-07-31T08:04:14;2.53;;;0.80;;
7027;SDS011;3555;53.248;10.336;2023-07-31T08:06:41;1.10;;;1.00;;
7027;SDS011;3555;53.248;10.336;2023-07-31T08:09:08;2.30;;;0.90;;
7027;SDS011;3555;53.248;10.336;2023-07-31T08:11:35;2.55;;;1.08;;
7027;SDS011;3555;53.248;10.336;2023-07-31T08:14:02;1.58;;;0.90;;
7027;SDS011;3555;53.248;10.336;2023-07-31T08:16:30;1.02;;;0.77;;
7027;SDS011;3555;53.248;10.336;2023-07-31T08:18:57;2.00;;;0.80;;
7027;SDS011;3555;53.248;10.336;2023-07-31T08:21:23;1.20;;;0.85;;
7027;SDS011;3555;53.248;10.336;2023-07-31T08:23:50;1.23;;;0.90;;
7027;SDS011;3555;53.248;10.336;2023-07-31T08:26:17;0.93;;;0.70;;
7027;SDS011;3555;53.248;10.336;2023-07-31T08:28:44;0.90;;;0.73;;
7027;SDS011;3555;53.248;10.336;2023-07-31T08:31:11;0.90;;;0.65;;
7027;SDS011;3555;53.248;10.336;2023-07-31T08:33:39;1.35;;;1.08;;
7027;SDS011;3555;53.248;10.336;2023-07-31T08:36:06;1.05;;;0.80;;
7027;SDS011;3555;53.248;10.336;2023-07-31T08:38:33;0.90;;;0.70;;
7027;SDS011;3555;53.248;10.336;2023-07-31T08:41:02;1.80;;;0.68;;
7027;SDS011;3555;53.248;10.336;2023-07-31T08:43:29;1.13;;;0.73;;
7027;SDS011;3555;53.248;10.336;2023-07-31T08:45:57;1.20;;;0.90;;
7027;SDS011;3555;53.248;10.336;2023-07-31T08:48:24;1.10;;;0.73;;
7027;SDS011;3555;53.248;10.336;2023-07-31T08:50:53;1.05;;;0.70;;
7027;SDS011;3555;53.248;10.336;2023-07-31T08:53:20;1.02;;;0.70;;
7027;SDS011;3555;53.248;10.336;2023-07-31T08:55:47;0.88;;;0.60;;
7027;SDS011;3555;53.248;10.336;2023-07-31T08:58:15;0.90;;;0.80;;
7027;SDS011;3555;53.248;10.336;2023-07-31T09:00:44;1.00;;;0.60;;
7027;SDS011;3555;53.248;10.336;2023-07-31T09:03:13;0.80;;;0.60;;
7027;SDS011;3555;53.248;10.336;2023-07-31T09:05:42;0.80;;;0.65;;
7027;SDS011;3555;53.248;10.336;2023-07-31T09:08:12;0.70;;;0.50;;
7027;SDS011;3555;53.248;10.336;2023-07-31T09:10:40;0.80;;;0.60;;
7027;SDS011;3555;53.248;10.336;2023-07-31T09:13:08;0.90;;;0.60;;
7027;SDS011;3555;53.248;10.336;2023-07-31T09:15:35;1.00;;;0.60;;
7027;SDS011;3555;53.248;10.336;2023-07-31T09:18:03;1.17;;;0.70;;
7027;SDS011;3555;53.248;10.336;2023-07-31T09:20:31;1.48;;;0.80;;
7027;SDS011;3555;53.248;10.336;2023-07-31T09:23:04;1.00;;;0.80;;
7027;SDS011;3555;53.248;10.336;2023-07-31T09:25:34;1.00;;;0.80;;
7027;SDS011;3555;53.248;10.336;2023-07-31T09:28:02;1.80;;;1.30;;
7027;SDS011;3555;53.248;10.336;2023-07-31T09:30:31;2.00;;;1.35;;
7027;SDS011;3555;53.248;10.336;2023-07-31T09:33:09;2.13;;;1.50;;
7027;SDS011;3555;53.248;10.336;2023-07-31T09:35:36;2.20;;;1.60;;
7027;SDS011;3555;53.248;10.336;2023-07-31T09:38:06;5.07;;;1.85;;
7027;SDS011;3555;53.248;10.336;2023-07-31T09:40:35;4.15;;;2.65;;
7027;SDS011;3555;53.248;10.336;2023-07-31T09:43:03;3.90;;;2.67;;
7027;SDS011;3555;53.248;10.336;2023-07-31T09:45:33;6.38;;;2.85;;
7027;SDS011;3555;53.248;10.336;2023-07-31T09:48:01;4.43;;;3.00;;
7027;SDS011;3555;53.248;10.336;2023-07-31T09:50:29;5.13;;;3.08;;
7027;SDS011;3555;53.248;10.336;2023-07-31T09:52:56;8.55;;;3.92;;
7027;SDS011;3555;53.248;10.336;2023-07-31T09:55:23;5.70;;;3.85;;
7027;SDS011;3555;53.248;10.336;2023-07-31T09:57:52;7.25;;;4.03;;
7027;SDS011;3555;53.248;10.336;2023-07-31T10:00:23;7.53;;;4.18;;
7027;SDS011;3555;53.248;10.336;2023-07-31T10:02:53;8.48;;;4.00;;
7027;SDS011;3555;53.248;10.336;2023-07-31T10:05:20;13.85;;;4.72;;
7027;SDS011;3555;53.248;10.336;2023-07-31T10:07:50;10.10;;;4.50;;
7027;SDS011;3555;53.248;10.336;2023-07-31T10:10:19;7.70;;;4.32;;
7027;SDS011;3555;53.248;10.336;2023-07-31T10:12:47;8.52;;;4.45;;
7027;SDS011;3555;53.248;10.336;2023-07-31T10:15:17;7.97;;;4.57;;
7027;SDS011;3555;53.248;10.336;2023-07-31T10:17:44;7.20;;;4.22;;
7027;SDS011;3555;53.248;10.336;2023-07-31T10:20:14;8.00;;;4.35;;
7027;SDS011;3555;53.248;10.336;2023-07-31T10:22:42;8.27;;;4.50;;
7027;SDS011;3555;53.248;10.336;2023-07-31T10:25:11;8.95;;;4.55;;
7027;SDS011;3555;53.248;10.336;2023-07-31T10:27:38;8.45;;;5.38;;
7027;SDS011;3555;53.248;10.336;2023-07-31T10:30:06;7.72;;;4.68;;
7027;SDS011;3555;53.248;10.336;2023-07-31T10:32:37;8.80;;;4.68;;
7027;SDS011;3555;53.248;10.336;2023-07-31T10:35:05;8.25;;;4.85;;
7027;SDS011;3555;53.248;10.336;2023-07-31T10:37:36;14.57;;;4.63;;
7027;SDS011;3555;53.248;10.336;2023-07-31T10:40:04;9.32;;;4.90;;
7027;SDS011;3555;53.248;10.336;2023-07-31T10:42:33;10.80;;;4.88;;
7027;SDS011;3555;53.248;10.336;2023-07-31T10:45:02;7.80;;;4.53;;
7027;SDS011;3555;53.248;10.336;2023-07-31T10:47:31;8.73;;;3.97;;
7027;SDS011;3555;53.248;10.336;2023-07-31T10:50:14;7.80;;;4.00;;
7027;SDS011;3555;53.248;10.336;2023-07-31T10:52:46;7.57;;;4.18;;
7027;SDS011;3555;53.248;10.336;2023-07-31T10:55:15;8.10;;;4.60;;
7027;SDS011;3555;53.248;10.336;2023-07-31T10:57:52;8.43;;;4.38;;
7027;SDS011;3555;53.248;10.336;2023-07-31T11:00:23;6.55;;;4.15;;
7027;SDS011;3555;53.248;10.336;2023-07-31T11:02:58;12.63;;;4.32;;
7027;SDS011;3555;53.248;10.336;2023-07-31T11:05:47;10.18;;;3.88;;
7027;SDS011;3555;53.248;10.336;2023-07-31T11:08:17;5.70;;;3.72;;
7027;SDS011;3555;53.248;10.336;2023-07-31T11:10:46;4.43;;;3.58;;
7027;SDS011;3555;53.248;10.336;2023-07-31T11:13:13;4.45;;;3.50;;
7027;SDS011;3555;53.248;10.336;2023-07-31T11:15:40;7.00;;;3.90;;
7027;SDS011;3555;53.248;10.336;2023-07-31T11:18:07;8.48;;;3.92;;
7027;SDS011;3555;53.248;10.336;2023-07-31T11:20:36;6.90;;;3.28;;
7027;SDS011;3555;53.248;10.336;2023-07-31T11:23:05;4.85;;;3.35;;
7027;SDS011;3555;53.248;10.336;2023-07-31T11:25:33;7.03;;;3.00;;
7027;SDS011;3555;53.248;10.336;2023-07-31T11:28:04;8.23;;;4.28;;
7027;SDS011;3555;53.248;10.336;2023-07-31T11:30:32;4.97;;;3.10;;
7027;SDS011;3555;53.248;10.336;2023-07-31T11:33:00;5.07;;;3.22;;
7027;SDS011;3555;53.248;10.336;2023-07-31T11:35:29;6.32;;;3.20;;
7027;SDS011;3555;53.248;10.336;2023-07-31T11:37:56;5.20;;;3.00;;
7027;SDS011;3555;53.248;10.336;2023-07-31T11:40:25;4.45;;;2.50;;
7027;SDS011;3555;53.248;10.336;2023-07-31T11:42:54;3.55;;;2.47;;
7027;SDS011;3555;53.248;10.336;2023-07-31T11:45:24;6.05;;;2.75;;
7027;SDS011;3555;53.248;10.336;2023-07-31T11:47:52;3.50;;;2.00;;
7027;SDS011;3555;53.248;10.336;2023-07-31T11:50:20;3.47;;;2.17;;
7027;SDS011;3555;53.248;10.336;2023-07-31T11:52:50;4.07;;;2.20;;
7027;SDS011;3555;53.248;10.336;2023-07-31T11:55:21;4.10;;;2.30;;
7027;SDS011;3555;53.248;10.336;2023-07-31T11:57:51;3.78;;;2.05;;
7027;SDS011;3555;53.248;10.336;2023-07-31T12:00:20;2.30;;;1.52;;
7027;SDS011;3555;53.248;10.336;2023-07-31T12:02:48;3.03;;;1.50;;
7027;SDS011;3555;53.248;10.336;2023-07-31T12:05:16;2.88;;;1.90;;
7027;SDS011;3555;53.248;10.336;2023-07-31T12:07:47;2.63;;;1.75;;
7027;SDS011;3555;53.248;10.336;2023-07-31T12:10:24;3.05;;;1.70;;
7027;SDS011;3555;53.248;10.336;2023-07-31T12:12:58;1.77;;;1.60;;
7027;SDS011;3555;53.248;10.336;2023-07-31T12:15:36;2.55;;;1.80;;
7027;SDS011;3555;53.248;10.336;2023-07-31T12:18:05;2.40;;;1.50;;
7027;SDS011;3555;53.248;10.336;2023-07-31T12:20:34;1.63;;;1.40;;
7027;SDS011;3555;53.248;10.336;2023-07-31T12:23:03;2.95;;;1.70;;
7027;SDS011;3555;53.248;10.336;2023-07-31T12:25:31;1.65;;;1.40;;
7027;SDS011;3555;53.248;10.336;2023-07-31T12:28:05;2.20;;;1.73;;
7027;SDS011;3555;53.248;10.336;2023-07-31T12:30:36;2.58;;;1.50;;
7027;SDS011;3555;53.248;10.336;2023-07-31T12:33:04;1.98;;;1.65;;
7027;SDS011;3555;53.248;10.336;2023-07-31T12:35:35;2.10;;;1.55;;
7027;SDS011;3555;53.248;10.336;2023-07-31T12:38:06;4.00;;;1.77;;
7027;SDS011;3555;53.248;10.336;2023-07-31T12:40:35;1.65;;;1.55;;
7027;SDS011;3555;53.248;10.336;2023-07-31T12:43:05;2.00;;;1.45;;
7027;SDS011;3555;53.248;10.336;2023-07-31T12:45:32;2.00;;;1.40;;
7027;SDS011;3555;53.248;10.336;2023-07-31T12:47:59;1.92;;;1.50;;
7027;SDS011;3555;53.248;10.336;2023-07-31T12:50:27;1.40;;;1.23;;
7027;SDS011;3555;53.248;10.336;2023-07-31T12:52:54;1.60;;;1.40;;
7027;SDS011;3555;53.248;10.336;2023-07-31T12:55:21;2.15;;;1.30;;
7027;SDS011;3555;53.248;10.336;2023-07-31T12:57:48;2.15;;;1.30;;
7027;SDS011;3555;53.248;10.336;2023-07-31T13:00:17;1.52;;;1.20;;
7027;SDS011;3555;53.248;10.336;2023-07-31T13:02:44;2.15;;;1.50;;
7027;SDS011;3555;53.248;10.336;2023-07-31T13:05:11;1.90;;;1.58;;
7027;SDS011;3555;53.248;10.336;2023-07-31T13:07:38;1.50;;;1.40;;
7027;SDS011;3555;53.248;10.336;2023-07-31T13:10:06;1.58;;;1.48;;
7027;SDS011;3555;53.248;10.336;2023-07-31T13:12:33;1.83;;;1.50;;
7027;SDS011;3555;53.248;10.336;2023-07-31T13:15:00;3.83;;;1.52;;
7027;SDS011;3555;53.248;10.336;2023-07-31T13:17:28;3.97;;;1.80;;
7027;SDS011;3555;53.248;10.336;2023-07-31T13:19:55;2.25;;;1.50;;
7027;SDS011;3555;53.248;10.336;2023-07-31T13:22:22;1.95;;;1.52;;
7027;SDS011;3555;53.248;10.336;2023-07-31T13:24:49;1.80;;;1.38;;
7027;SDS011;3555;53.248;10.336;2023-07-31T13:27:16;1.75;;;1.45;;
7027;SDS011;3555;53.248;10.336;2023-07-31T13:29:44;2.00;;;1.30;;
7027;SDS011;3555;53.248;10.336;2023-07-31T13:32:11;1.50;;;1.20;;
7027;SDS011;3555;53.248;10.336;2023-07-31T13:34:39;1.98;;;1.20;;
7027;SDS011;3555;53.248;10.336;2023-07-31T13:37:06;1.50;;;1.15;;
7027;SDS011;3555;53.248;10.336;2023-07-31T13:39:33;1.85;;;1.30;;
7027;SDS011;3555;53.248;10.336;2023-07-31T13:42:01;1.52;;;1.20;;
7027;SDS011;3555;53.248;10.336;2023-07-31T13:44:28;1.35;;;1.10;;
7027;SDS011;3555;53.248;10.336;2023-07-31T13:46:55;2.08;;;1.50;;
7027;SDS011;3555;53.248;10.336;2023-07-31T13:49:22;1.20;;;1.10;;
7027;SDS011;3555;53.248;10.336;2023-07-31T13:51:50;2.40;;;1.17;;
7027;SDS011;3555;53.248;10.336;2023-07-31T13:54:17;1.20;;;1.10;;
7027;SDS011;3555;53.248;10.336;2023-07-31T13:56:44;1.40;;;1.05;;
7027;SDS011;3555;53.248;10.336;2023-07-31T13:59:11;1.60;;;1.20;;
7027;SDS011;3555;53.248;10.336;2023-07-31T14:01:40;1.30;;;1.15;;
7027;SDS011;3555;53.248;10.336;2023-07-31T14:04:07;2.50;;;1.40;;
7027;SDS011;3555;53.248;10.336;2023-07-31T14:06:33;2.90;;;1.30;;
7027;SDS011;3555;53.248;10.336;2023-07-31T14:09:02;1.50;;;1.40;;
7027;SDS011;3555;53.248;10.336;2023-07-31T14:11:30;2.35;;;1.05;;
7027;SDS011;3555;53.248;10.336;2023-07-31T14:13:57;2.45;;;1.27;;
7027;SDS011;3555;53.248;10.336;2023-07-31T14:16:24;2.60;;;1.30;;
7027;SDS011;3555;53.248;10.336;2023-07-31T14:18:51;3.15;;;1.20;;
7027;SDS011;3555;53.248;10.336;2023-07-31T14:21:18;1.30;;;1.15;;
7027;SDS011;3555;53.248;10.336;2023-07-31T14:23:44;2.25;;;1.20;;
7027;SDS011;3555;53.248;10.336;2023-07-31T14:26:13;1.70;;;1.50;;
7027;SDS011;3555;53.248;10.336;2023-07-31T14:28:40;1.98;;;1.60;;
7027;SDS011;3555;53.248;10.336;2023-07-31T14:31:06;1.50;;;1.40;;
7027;SDS011;3555;53.248;10.336;2023-07-31T14:33:33;1.80;;;1.60;;
7027;SDS011;3555;53.248;10.336;2023-07-31T14:36:00;1.90;;;1.70;;
7027;SDS011;3555;53.248;10.336;2023-07-31T14:38:28;2.22;;;1.88;;
7027;SDS011;3555;53.248;10.336;2023-07-31T14:40:54;2.92;;;1.83;;
7027;SDS011;3555;53.248;10.336;2023-07-31T14:43:23;2.15;;;1.90;;
7027;SDS011;3555;53.248;10.336;2023-07-31T14:45:50;2.58;;;2.00;;
7027;SDS011;3555;53.248;10.336;2023-07-31T14:48:18;2.20;;;2.00;;
7027;SDS011;3555;53.248;10.336;2023-07-31T14:50:45;2.05;;;1.85;;
7027;SDS011;3555;53.248;10.336;2023-07-31T14:53:12;1.90;;;1.67;;
7027;SDS011;3555;53.248;10.336;2023-07-31T14:55:39;2.28;;;1.60;;
7027;SDS011;3555;53.248;10.336;2023-07-31T14:58:06;4.78;;;1.83;;
7027;SDS011;3555;53.248;10.336;2023-07-31T15:00:34;2.15;;;1.95;;
7027;SDS011;3555;53.248;10.336;2023-07-31T15:03:01;1.90;;;1.80;;
7027;SDS011;3555;53.248;10.336;2023-07-31T15:05:28;2.42;;;2.22;;
7027;SDS011;3555;53.248;10.336;2023-07-31T15:07:55;3.58;;;2.08;;